createdAt,value
2019-01-10T00:01:44.664Z,98553.06
2019-01-10T00:04:14.085Z,98558.86
2019-01-10T00:06:43.441Z,98561.03
2019-01-10T00:09:12.896Z,98565.34
2019-01-10T00:11:42.250Z,98560.03
2019-01-10T00:14:11.599Z,98559.68
2019-01-10T00:16:40.948Z,98562.36
2019-01-10T00:19:10.296Z,98565.64
2019-01-10T00:21:39.684Z,98576.78
2019-01-10T00:24:09.016Z,98581.25
2019-01-10T00:26:38.367Z,98578.92
2019-01-10T00:29:07.726Z,98581.57
2019-01-10T00:31:37.088Z,98588.55
2019-01-10T00:34:06.434Z,98594.85
2019-01-10T00:36:35.784Z,98600.66
2019-01-10T00:39:07.462Z,98604.16
2019-01-10T00:41:37.074Z,98614.25
2019-01-10T00:44:06.469Z,98625.84
2019-01-10T00:46:35.966Z,98623.70
2019-01-10T00:49:05.378Z,98625.37
2019-01-10T00:51:34.874Z,98631.02
2019-01-10T00:54:04.338Z,98624.71
2019-01-10T00:56:33.693Z,98628.02
2019-01-10T00:59:03.041Z,98629.66
2019-01-10T01:01:32.395Z,98627.45
2019-01-10T01:04:01.856Z,98630.59
2019-01-10T01:06:31.395Z,98624.92
2019-01-10T01:09:00.728Z,98625.84
2019-01-10T01:11:30.074Z,98626.30
2019-01-10T01:13:59.420Z,98627.69
2019-01-10T01:16:28.774Z,98624.27
2019-01-10T01:18:58.110Z,98623.53
2019-01-10T01:21:27.456Z,98633.40
2019-01-10T01:23:56.796Z,98641.19
2019-01-10T01:26:26.147Z,98649.25
2019-01-10T01:28:55.488Z,98643.45
2019-01-10T01:31:24.840Z,98636.58
2019-01-10T01:33:54.176Z,98644.61
2019-01-10T01:36:23.645Z,98640.36
2019-01-10T01:38:53.079Z,98634.34
2019-01-10T01:41:22.427Z,98640.91
2019-01-10T01:43:51.838Z,98629.70
2019-01-10T01:46:21.210Z,98639.03
2019-01-10T01:48:50.636Z,98640.67
2019-01-10T01:51:19.992Z,98652.47
2019-01-10T01:53:49.330Z,98656.70
2019-01-10T01:56:18.675Z,98650.77
2019-01-10T01:58:48.101Z,98644.24
2019-01-10T02:01:17.459Z,98644.59
2019-01-10T02:03:46.910Z,98646.28
2019-01-10T02:06:16.444Z,98651.29
2019-01-10T02:08:45.778Z,98647.03
2019-01-10T02:11:15.127Z,98643.41
2019-01-10T02:13:44.479Z,98653.33
2019-01-10T02:16:13.825Z,98656.03
2019-01-10T02:18:43.168Z,98652.34
2019-01-10T02:21:12.511Z,98650.68
2019-01-10T02:23:41.852Z,98648.35
2019-01-10T02:26:11.256Z,98644.33
2019-01-10T02:28:40.671Z,98656.66
2019-01-10T02:31:10.030Z,98665.93
2019-01-10T02:33:39.398Z,98673.88
2019-01-10T02:36:08.748Z,98677.16
2019-01-10T02:38:38.231Z,98676.84
2019-01-10T02:41:07.570Z,98679.80
2019-01-10T02:43:36.919Z,98679.15
2019-01-10T02:46:06.264Z,98675.26
2019-01-10T02:48:35.634Z,98685.94
2019-01-10T02:51:04.976Z,98691.14
2019-01-10T02:53:34.327Z,98686.08
2019-01-10T02:56:03.707Z,98689.55
2019-01-10T02:58:33.020Z,98688.01
2019-01-10T03:01:02.358Z,98693.80
2019-01-10T03:03:31.695Z,98701.25
2019-01-10T03:06:01.033Z,98714.38
2019-01-10T03:08:30.385Z,98709.08
2019-01-10T03:10:59.737Z,98707.12
2019-01-10T03:13:36.500Z,98719.58
2019-01-10T03:16:00.362Z,98709.99
2019-01-10T03:18:29.740Z,98713.87
2019-01-10T03:20:59.120Z,98698.98
2019-01-10T03:23:28.789Z,98690.69
2019-01-10T03:25:58.328Z,98691.04
2019-01-10T03:28:27.719Z,98701.22
2019-01-10T03:30:57.171Z,98703.80
2019-01-10T03:33:26.775Z,98704.95
2019-01-10T03:35:56.186Z,98718.78
2019-01-10T03:38:25.780Z,98713.39
2019-01-10T03:40:55.356Z,98713.20
2019-01-10T03:43:24.896Z,98716.53
2019-01-10T03:45:54.563Z,98716.06
2019-01-10T03:48:23.971Z,98715.92
2019-01-10T03:50:53.407Z,98720.70
2019-01-10T03:53:22.897Z,98709.78
2019-01-10T03:55:52.401Z,98716.27
2019-01-10T03:58:21.940Z,98723.03
2019-01-10T04:00:51.386Z,98719.04
2019-01-10T04:03:20.944Z,98714.11
2019-01-10T04:05:50.583Z,98712.44
2019-01-10T04:08:20.266Z,98710.12
2019-01-10T04:10:49.768Z,98718.48
2019-01-10T04:13:19.219Z,98719.95
2019-01-10T04:15:48.660Z,98722.59
2019-01-10T04:18:18.179Z,98723.78
2019-01-10T04:20:47.689Z,98729.94
2019-01-10T04:23:17.105Z,98735.09
2019-01-10T04:25:46.602Z,98739.36
2019-01-10T04:28:16.137Z,98743.95
2019-01-10T04:30:46.434Z,98744.84
2019-01-10T04:33:15.975Z,98733.91
2019-01-10T04:35:45.445Z,98734.94
2019-01-10T04:38:14.938Z,98743.67
2019-01-10T04:40:44.380Z,98746.52
2019-01-10T04:43:13.942Z,98750.58
2019-01-10T04:45:43.402Z,98740.47
2019-01-10T04:48:13.036Z,98755.45
2019-01-10T04:50:42.732Z,98765.58
2019-01-10T04:53:12.267Z,98762.50
2019-01-10T04:55:41.743Z,98751.61
2019-01-10T04:58:11.364Z,98757.88
2019-01-10T05:00:41.067Z,98760.48
2019-01-10T05:03:10.525Z,98767.39
2019-01-10T05:05:40.124Z,98773.04
2019-01-10T05:08:09.608Z,98778.55
2019-01-10T05:10:39.044Z,98787.38
2019-01-10T05:13:08.546Z,98790.34
2019-01-10T05:15:38.059Z,98799.68
2019-01-10T05:18:08.171Z,98816.07
2019-01-10T05:20:37.849Z,98828.55
2019-01-10T05:23:07.388Z,98835.11
2019-01-10T05:25:36.929Z,98838.80
2019-01-10T05:28:06.354Z,98840.61
2019-01-10T05:30:35.819Z,98846.32
2019-01-10T05:33:05.321Z,98841.02
2019-01-10T05:35:34.762Z,98863.11
2019-01-10T05:38:04.199Z,98864.87
2019-01-10T05:40:33.669Z,98858.59
2019-01-10T05:43:03.115Z,98867.92
2019-01-10T05:45:32.593Z,98870.56
2019-01-10T05:48:02.017Z,98865.44
2019-01-10T05:50:31.452Z,98869.97
2019-01-10T05:53:00.924Z,98877.77
2019-01-10T05:55:30.423Z,98882.53
2019-01-10T05:57:59.833Z,98887.52
2019-01-10T06:00:29.585Z,98899.16
2019-01-10T06:02:59.697Z,98895.53
2019-01-10T06:05:29.254Z,98893.09
2019-01-10T06:07:58.797Z,98901.44
2019-01-10T06:10:29.593Z,98905.27
2019-01-10T06:12:59.467Z,98908.50
2019-01-10T06:15:28.958Z,98912.23
2019-01-10T06:17:58.467Z,98918.30
2019-01-10T06:20:28.032Z,98933.87
2019-01-10T06:22:57.609Z,98926.72
2019-01-10T06:25:27.237Z,98930.50
2019-01-10T06:27:56.708Z,98939.88
2019-01-10T06:30:26.245Z,98938.63
2019-01-10T06:32:55.928Z,98951.63
2019-01-10T06:35:25.461Z,98949.39
2019-01-10T06:37:54.957Z,98949.47
2019-01-10T06:40:24.530Z,98955.84
2019-01-10T06:42:54.057Z,98964.83
2019-01-10T06:45:23.546Z,98969.82
2019-01-10T06:47:53.161Z,98965.20
2019-01-10T06:50:22.804Z,98977.38
2019-01-10T06:52:52.249Z,98980.28
2019-01-10T06:55:21.667Z,98977.06
2019-01-10T06:57:51.275Z,98986.91
2019-01-10T07:00:25.261Z,98991.27
2019-01-10T07:02:55.288Z,98995.52
2019-01-10T07:05:24.952Z,98998.03
2019-01-10T07:07:56.752Z,99004.55
2019-01-10T07:10:30.058Z,99002.16
2019-01-10T07:12:59.654Z,99004.45
2019-01-10T07:15:29.221Z,99011.45
2019-01-10T07:17:58.873Z,99015.42
2019-01-10T07:20:28.331Z,99019.13
2019-01-10T07:22:57.902Z,99017.41
2019-01-10T07:25:27.446Z,99021.38
2019-01-10T07:27:57.029Z,99018.73
2019-01-10T07:30:35.764Z,99019.13
2019-01-10T07:32:59.056Z,99023.58
2019-01-10T07:35:28.614Z,99040.91
2019-01-10T07:37:58.308Z,99047.72
2019-01-10T07:40:28.379Z,99038.02
2019-01-10T07:42:57.981Z,99034.00
2019-01-10T07:45:28.393Z,99038.53
2019-01-10T07:47:57.906Z,99043.14
2019-01-10T07:50:32.307Z,99047.94
2019-01-10T07:53:02.112Z,99045.25
2019-01-10T07:55:31.646Z,99042.17
2019-01-10T07:58:01.055Z,99045.39
2019-01-10T08:00:30.461Z,99051.54
2019-01-10T08:03:00.004Z,99048.54
2019-01-10T08:05:29.459Z,99044.62
2019-01-10T08:07:58.877Z,99041.90
2019-01-10T08:10:28.334Z,99039.09
2019-01-10T08:12:57.823Z,99044.58
2019-01-10T08:15:27.284Z,99038.61
2019-01-10T08:17:56.687Z,99035.09
2019-01-10T08:20:26.366Z,99039.18
2019-01-10T08:22:55.774Z,99035.43
2019-01-10T08:25:25.308Z,99037.86
2019-01-10T08:27:54.741Z,99032.95
2019-01-10T08:30:25.537Z,99033.08
2019-01-10T08:32:55.056Z,99033.78
2019-01-10T08:35:26.348Z,99047.52
2019-01-10T08:37:55.859Z,99049.19
2019-01-10T08:40:25.347Z,99044.88
2019-01-10T08:42:54.852Z,99050.70
2019-01-10T08:45:24.351Z,99056.86
2019-01-10T08:47:53.880Z,99068.53
2019-01-10T08:50:27.598Z,99055.48
2019-01-10T08:52:57.175Z,99047.16
2019-01-10T08:55:26.660Z,99046.45
2019-01-10T08:57:56.292Z,99048.36
2019-01-10T09:00:26.460Z,99042.02
2019-01-10T09:02:56.232Z,99029.07
2019-01-10T09:05:25.788Z,99019.61
2019-01-10T09:07:55.264Z,99028.13
2019-01-10T09:10:32.513Z,99017.32
2019-01-10T09:13:01.935Z,99011.16
2019-01-10T09:15:34.661Z,99018.19
2019-01-10T09:18:02.688Z,99019.53
2019-01-10T09:20:32.207Z,99021.50
2019-01-10T09:23:01.649Z,99006.68
2019-01-10T09:25:31.099Z,99004.86
2019-01-10T09:28:00.532Z,99010.52
2019-01-10T09:30:30.007Z,99014.41
2019-01-10T09:32:59.504Z,98999.91
2019-01-10T09:35:28.903Z,99003.80
2019-01-10T09:37:58.291Z,98998.65
2019-01-10T09:40:27.770Z,99011.06
2019-01-10T09:42:57.200Z,99000.38
2019-01-10T09:45:27.071Z,99002.76
2019-01-10T09:47:56.664Z,99014.78
2019-01-10T09:50:26.122Z,99011.50
2019-01-10T09:52:55.601Z,99014.52
2019-01-10T09:55:25.086Z,99006.69
2019-01-10T09:57:54.576Z,99002.20
2019-01-10T10:00:26.426Z,99000.20
2019-01-10T10:02:55.944Z,98994.55
2019-01-10T10:05:25.371Z,98989.22
2019-01-10T10:07:54.831Z,98987.85
2019-01-10T10:10:25.668Z,98987.87
2019-01-10T10:12:55.116Z,98981.89
2019-01-10T10:15:24.589Z,98979.22
2019-01-10T10:17:53.963Z,98979.55
2019-01-10T10:20:24.829Z,98984.89
2019-01-10T10:22:54.478Z,98980.85
2019-01-10T10:25:26.002Z,98973.50
2019-01-10T10:27:55.181Z,98975.45
2019-01-10T10:30:24.595Z,98971.15
2019-01-10T10:32:53.983Z,98978.84
2019-01-10T10:35:23.973Z,98973.55
2019-01-10T10:37:53.433Z,98968.02
2019-01-10T10:40:23.264Z,98982.48
2019-01-10T10:42:53.303Z,98988.00
2019-01-10T10:45:23.164Z,98981.14
2019-01-10T10:47:52.633Z,98972.33
2019-01-10T10:50:29.303Z,98977.88
2019-01-10T10:52:58.813Z,98979.55
2019-01-10T10:55:28.340Z,98997.20
2019-01-10T10:57:57.763Z,98997.55
2019-01-10T11:00:29.343Z,98987.55
2019-01-10T11:02:58.771Z,98988.87
2019-01-10T11:05:28.285Z,98978.53
2019-01-10T11:07:57.787Z,98966.22
2019-01-10T11:10:27.203Z,98971.87
2019-01-10T11:12:56.589Z,98962.53
2019-01-10T11:15:26.135Z,98965.87
2019-01-10T11:17:55.699Z,98958.16
2019-01-10T11:20:25.220Z,98965.40
2019-01-10T11:22:55.141Z,98969.41
2019-01-10T11:25:26.273Z,98975.10
2019-01-10T11:27:56.039Z,98991.91
2019-01-10T11:30:25.556Z,98987.09
2019-01-10T11:32:55.164Z,98977.63
2019-01-10T11:35:24.548Z,98979.47
2019-01-10T11:37:53.976Z,98978.17
2019-01-10T11:40:23.769Z,98967.19
2019-01-10T11:42:53.263Z,98953.57
2019-01-10T11:45:29.271Z,98967.91
2019-01-10T11:47:58.787Z,98980.39
2019-01-10T11:50:28.197Z,98971.37
2019-01-10T11:52:57.592Z,98968.72
2019-01-10T11:55:27.062Z,98967.89
2019-01-10T11:57:56.566Z,98958.55
2019-01-10T12:00:31.234Z,98956.05
2019-01-10T12:03:02.262Z,98946.55
2019-01-10T12:05:31.638Z,98951.70
2019-01-10T12:08:01.095Z,98952.20
2019-01-10T12:10:30.597Z,98946.23
2019-01-10T12:13:00.066Z,98946.72
2019-01-10T12:15:29.459Z,98945.88
2019-01-10T12:17:58.888Z,98956.22
2019-01-10T12:20:28.409Z,98968.02
2019-01-10T12:22:57.963Z,98978.86
2019-01-10T12:25:27.470Z,98971.91
2019-01-10T12:27:56.967Z,98961.70
2019-01-10T12:30:27.129Z,98959.21
2019-01-10T12:32:56.661Z,98962.16
2019-01-10T12:35:26.552Z,98973.58
2019-01-10T12:37:56.171Z,98977.42
2019-01-10T12:40:25.634Z,98970.38
2019-01-10T12:42:55.189Z,98951.98
2019-01-10T12:45:24.637Z,98946.63
2019-01-10T12:47:54.046Z,98949.94
2019-01-10T12:50:33.511Z,98965.70
2019-01-10T12:53:10.059Z,98966.50
2019-01-10T12:55:40.135Z,98964.11
2019-01-10T12:58:09.894Z,98964.45
2019-01-10T13:00:39.387Z,98963.13
2019-01-10T13:03:08.793Z,98958.06
2019-01-10T13:05:38.328Z,98955.05
2019-01-10T13:08:07.836Z,98954.22
2019-01-10T13:10:37.225Z,98946.78
2019-01-10T13:13:06.858Z,98944.27
2019-01-10T13:15:36.327Z,98944.61
2019-01-10T13:18:05.911Z,98945.36
2019-01-10T13:20:35.297Z,98932.32
2019-01-10T13:23:04.831Z,98919.30
2019-01-10T13:25:34.273Z,98918.80
2019-01-10T13:28:03.662Z,98916.34
2019-01-10T13:30:33.142Z,98913.38
2019-01-10T13:33:02.579Z,98924.01
2019-01-10T13:35:32.000Z,98934.30
2019-01-10T13:38:01.403Z,98925.84
2019-01-10T13:40:30.895Z,98923.28
2019-01-10T13:43:00.271Z,98925.48
2019-01-10T13:45:29.863Z,98936.61
2019-01-10T13:47:59.652Z,98939.11
2019-01-10T13:50:30.684Z,98932.97
2019-01-10T13:53:00.253Z,98927.11
2019-01-10T13:55:29.784Z,98917.02
2019-01-10T13:57:59.390Z,98918.36
2019-01-10T14:00:35.414Z,98923.38
2019-01-10T14:03:01.968Z,98921.20
2019-01-10T14:05:31.397Z,98920.86
2019-01-10T14:08:00.800Z,98918.35
2019-01-10T14:10:30.335Z,98925.34
2019-01-10T14:12:59.920Z,98917.37
2019-01-10T14:15:31.765Z,98923.02
2019-01-10T14:18:01.258Z,98908.67
2019-01-10T14:20:30.796Z,98903.95
2019-01-10T14:23:00.186Z,98895.58
2019-01-10T14:25:29.779Z,98896.41
2019-01-10T14:27:59.810Z,98892.19
2019-01-10T14:30:35.127Z,98891.04
2019-01-10T14:33:04.799Z,98895.19
2019-01-10T14:35:34.432Z,98897.20
2019-01-10T14:38:04.075Z,98899.17
2019-01-10T14:40:33.616Z,98900.48
2019-01-10T14:43:03.177Z,98893.80
2019-01-10T14:45:32.726Z,98889.75
2019-01-10T14:48:02.250Z,98886.39
2019-01-10T14:50:31.847Z,98889.39
2019-01-10T14:53:01.295Z,98872.44
2019-01-10T14:55:30.709Z,98860.28
2019-01-10T14:58:00.074Z,98856.13
2019-01-10T15:00:29.617Z,98851.65
2019-01-10T15:02:59.154Z,98858.47
2019-01-10T15:05:34.157Z,98866.03
2019-01-10T15:07:59.992Z,98876.92
2019-01-10T15:10:29.444Z,98889.70
2019-01-10T15:12:58.991Z,98891.44
2019-01-10T15:15:28.561Z,98883.72
2019-01-10T15:17:58.217Z,98884.41
2019-01-10T15:20:29.508Z,98878.61
2019-01-10T15:22:59.008Z,98872.37
2019-01-10T15:25:28.458Z,98869.06
2019-01-10T15:27:57.909Z,98867.02
2019-01-10T15:30:28.815Z,98861.03
2019-01-10T15:32:58.398Z,98860.61
2019-01-10T15:35:27.803Z,98860.58
2019-01-10T15:37:57.370Z,98856.97
2019-01-10T15:40:29.299Z,98856.55
2019-01-10T15:42:58.737Z,98867.16
2019-01-10T15:45:28.279Z,98866.89
2019-01-10T15:47:57.769Z,98873.25
2019-01-10T15:50:27.304Z,98864.31
2019-01-10T15:52:56.773Z,98854.03
2019-01-10T15:55:26.236Z,98855.38
2019-01-10T15:57:55.704Z,98846.64
2019-01-10T16:00:25.467Z,98840.16
2019-01-10T16:02:54.945Z,98835.25
2019-01-10T16:05:24.475Z,98829.33
2019-01-10T16:07:53.908Z,98820.39
2019-01-10T16:10:23.485Z,98822.50
2019-01-10T16:12:53.053Z,98826.97
2019-01-10T16:15:26.315Z,98823.62
2019-01-10T16:17:55.549Z,98815.38
2019-01-10T16:20:25.192Z,98831.29
2019-01-10T16:22:54.661Z,98824.02
2019-01-10T16:25:24.159Z,98799.46
2019-01-10T16:27:53.619Z,98822.01
2019-01-10T16:30:25.465Z,98824.70
2019-01-10T16:32:55.046Z,98810.47
2019-01-10T16:35:24.690Z,98817.80
2019-01-10T16:37:54.196Z,98810.83
2019-01-10T16:40:23.727Z,98795.59
2019-01-10T16:42:53.264Z,98788.31
2019-01-10T16:45:24.788Z,98797.28
2019-01-10T16:47:54.271Z,98797.27
2019-01-10T16:50:23.862Z,98800.50
2019-01-10T16:52:53.955Z,98789.89
2019-01-10T16:55:23.418Z,98787.59
2019-01-10T16:57:52.978Z,98801.12
2019-01-10T17:00:30.473Z,98805.38
2019-01-10T17:04:00.132Z,98816.34
2019-01-10T17:07:17.436Z,98813.56
2019-01-10T17:09:46.996Z,98804.64
2019-01-10T17:12:16.507Z,98797.45
2019-01-10T17:14:46.069Z,98808.69
2019-01-10T17:17:15.638Z,98809.23
2019-01-10T17:19:45.173Z,98794.45
2019-01-10T17:22:14.573Z,98788.64
2019-01-10T17:24:44.153Z,98794.52
2019-01-10T17:27:13.532Z,98783.77
2019-01-10T17:29:42.945Z,98787.76
2019-01-10T17:32:12.442Z,98788.30
2019-01-10T17:34:41.961Z,98794.84
2019-01-10T17:37:11.521Z,98802.10
2019-01-10T17:39:40.965Z,98809.36
2019-01-10T17:42:10.474Z,98799.57
2019-01-10T17:44:39.908Z,98807.72
2019-01-10T17:47:09.623Z,98812.70
2019-01-10T17:49:39.210Z,98837.59
2019-01-10T17:52:08.730Z,98828.80
2019-01-10T17:54:38.504Z,98843.09
2019-01-10T17:57:08.073Z,98860.45
2019-01-10T17:59:37.566Z,98853.62
2019-01-10T18:02:07.156Z,98843.80
2019-01-10T18:04:36.810Z,98848.91
2019-01-10T18:07:06.205Z,98860.55
2019-01-10T18:09:35.738Z,98863.83
2019-01-10T18:13:00.630Z,98887.83
2019-01-10T18:16:18.784Z,98882.13
2019-01-10T18:19:41.115Z,98899.13
2019-01-10T18:22:21.058Z,98909.83
2019-01-10T18:25:56.216Z,98921.41
2019-01-10T18:28:25.716Z,98933.37
2019-01-10T18:31:37.271Z,98917.78
2019-01-10T18:34:06.861Z,98889.66
2019-01-10T18:37:35.782Z,98876.55
2019-01-10T18:41:05.556Z,98878.96
2019-01-10T18:43:58.893Z,98877.98
2019-01-10T18:47:36.094Z,98890.30
2019-01-10T18:50:07.326Z,98914.57
2019-01-10T18:53:54.977Z,98926.29
2019-01-10T18:56:30.202Z,98913.91
2019-01-10T19:00:00.758Z,98906.27
2019-01-10T19:02:50.951Z,98907.14
2019-01-10T19:05:57.319Z,98930.17
2019-01-10T19:09:09.729Z,98928.84
2019-01-10T19:11:39.342Z,98925.27
2019-01-10T19:14:08.855Z,98931.27
2019-01-10T19:16:38.278Z,98935.58
2019-01-10T19:19:07.894Z,98951.38
2019-01-10T19:21:37.506Z,98961.91
2019-01-10T19:24:06.959Z,98956.26
2019-01-10T19:26:36.443Z,98954.52
2019-01-10T19:29:05.938Z,98958.25
2019-01-10T19:31:35.493Z,98948.80
2019-01-10T19:34:04.957Z,98954.94
2019-01-10T19:36:34.617Z,98956.89
2019-01-10T19:39:05.661Z,98964.87
2019-01-10T19:41:35.163Z,98982.40
2019-01-10T19:44:04.689Z,98989.16
2019-01-10T19:46:34.387Z,98995.22
2019-01-10T19:49:04.142Z,98996.78
2019-01-10T19:51:33.646Z,98989.80
2019-01-10T19:54:03.171Z,98985.91
2019-01-10T19:56:32.602Z,98966.67
2019-01-10T19:59:02.056Z,98957.19
2019-01-10T20:01:31.681Z,98949.37
2019-01-10T20:04:01.058Z,98954.01
2019-01-10T20:06:32.684Z,98957.33
2019-01-10T20:09:02.242Z,98948.48
2019-01-10T20:11:31.887Z,98954.40
2019-01-10T20:14:01.431Z,98976.87
2019-01-10T20:16:31.115Z,98967.59
2019-01-10T20:19:00.636Z,98959.00
2019-01-10T20:21:30.156Z,98960.19
2019-01-10T20:23:59.687Z,98964.17
2019-01-10T20:26:29.271Z,98967.41
2019-01-10T20:28:58.836Z,98972.82
2019-01-10T20:31:28.778Z,98989.76
2019-01-10T20:34:00.154Z,98986.90
2019-01-10T20:36:29.643Z,98981.03
2019-01-10T20:38:59.145Z,98975.60
2019-01-10T20:41:31.755Z,98974.84
2019-01-10T20:44:01.240Z,98982.71
2019-01-10T20:46:30.838Z,98991.94
2019-01-10T20:49:01.521Z,98981.34
2019-01-10T20:51:31.118Z,98969.08
2019-01-10T20:54:00.629Z,98973.72
2019-01-10T20:56:30.269Z,98979.09
2019-01-10T20:58:59.695Z,98989.55
2019-01-10T21:01:29.422Z,99003.97
2019-01-10T21:04:02.045Z,99010.11
2019-01-10T21:06:31.672Z,98998.68
2019-01-10T21:09:01.240Z,98988.13
2019-01-10T21:11:30.850Z,98992.10
2019-01-10T21:14:00.481Z,98990.78
2019-01-10T21:16:29.998Z,98990.03
2019-01-10T21:18:59.796Z,99014.34
2019-01-10T21:21:32.287Z,99008.07
2019-01-10T21:24:01.857Z,99002.42
2019-01-10T21:26:31.349Z,99016.02
2019-01-10T21:29:00.850Z,99017.00
2019-01-10T21:31:30.562Z,99003.14
2019-01-10T21:34:00.207Z,99015.05
2019-01-10T21:36:29.890Z,99026.19
2019-01-10T21:38:59.378Z,99010.45
2019-01-10T21:41:31.699Z,99021.94
2019-01-10T21:44:01.379Z,99034.20
2019-01-10T21:46:30.990Z,99037.25
2019-01-10T21:49:00.448Z,99052.88
2019-01-10T21:51:32.820Z,99060.90
2019-01-10T21:54:02.679Z,99056.01
2019-01-10T21:56:32.208Z,99041.03
2019-01-10T21:59:01.880Z,99055.73
2019-01-10T22:01:31.529Z,99042.88
2019-01-10T22:04:01.209Z,99027.67
2019-01-10T22:06:30.637Z,99030.20
2019-01-10T22:09:00.230Z,99021.83
2019-01-10T22:11:29.728Z,99019.48
2019-01-10T22:13:59.288Z,99007.27
2019-01-10T22:16:29.186Z,99020.69
2019-01-10T22:18:58.914Z,99031.28
2019-01-10T22:21:28.396Z,99039.01
2019-01-10T22:23:58.174Z,99047.34
2019-01-10T22:26:27.782Z,99039.28
2019-01-10T22:28:57.205Z,99043.11
2019-01-10T22:31:26.661Z,99057.55
2019-01-10T22:33:56.202Z,99048.50
2019-01-10T22:36:25.633Z,99057.82
2019-01-10T22:38:55.152Z,99057.47
2019-01-10T22:41:24.717Z,99058.80
2019-01-10T22:43:54.175Z,99062.89
2019-01-10T22:46:23.693Z,99076.49
2019-01-10T22:48:53.185Z,99088.02
2019-01-10T22:51:22.720Z,99094.98
2019-01-10T22:53:52.782Z,99099.58
2019-01-10T22:56:22.363Z,99095.04
2019-01-10T22:58:51.803Z,99087.39
2019-01-10T23:01:45.962Z,99093.80
2019-01-10T23:04:19.355Z,99101.87
2019-01-10T23:06:49.054Z,99112.20
2019-01-10T23:09:18.584Z,99118.20
2019-01-10T23:11:48.161Z,99103.05
2019-01-10T23:14:17.784Z,99097.13
2019-01-10T23:16:47.248Z,99106.89
2019-01-10T23:19:16.775Z,99102.09
2019-01-10T23:21:46.382Z,99110.44
2019-01-10T23:24:26.624Z,99130.62
2019-01-10T23:26:55.149Z,99150.27
2019-01-10T23:29:32.090Z,99142.19
2019-01-10T23:32:06.418Z,99151.24
2019-01-10T23:34:35.963Z,99140.08
2019-01-10T23:37:05.468Z,99142.23
2019-01-10T23:39:34.868Z,99140.56
2019-01-10T23:42:04.301Z,99139.53
2019-01-10T23:44:33.986Z,99138.56
2019-01-10T23:47:03.656Z,99149.42
2019-01-10T23:49:33.107Z,99165.31
2019-01-10T23:52:02.565Z,99167.96
2019-01-10T23:54:32.024Z,99172.55
2019-01-10T23:57:01.471Z,99176.52
2019-01-10T23:59:31.064Z,99193.03
